sensor_id;sensor_type;location;lat;lon;timestamp;P1;durP1;ratioP1;P2;durP2;ratioP2
6739;SDS011;3407;49.882;10.920;2024-01-27T00:00:53;2.50;;;2.40;;
6739;SDS011;3407;49.882;10.920;2024-01-27T00:05:48;11.63;;;2.27;;
6739;SDS011;3407;49.882;10.920;2024-01-27T00:10:44;2.60;;;2.17;;
6739;SDS011;3407;49.882;10.920;2024-01-27T00:15:40;2.00;;;1.90;;
6739;SDS011;3407;49.882;10.920;2024-01-27T00:20:36;1.50;;;1.50;;
6739;SDS011;3407;49.882;10.920;2024-01-27T00:25:32;2.73;;;2.53;;
6739;SDS011;3407;49.882;10.920;2024-01-27T00:30:28;2.17;;;1.67;;
6739;SDS011;3407;49.882;10.920;2024-01-27T00:35:24;1.87;;;1.87;;
6739;SDS011;3407;49.882;10.920;2024-01-27T00:40:19;1.60;;;1.60;;
6739;SDS011;3407;49.882;10.920;2024-01-27T00:45:15;1.40;;;1.40;;
6739;SDS011;3407;49.882;10.920;2024-01-27T00:50:10;1.53;;;1.53;;
6739;SDS011;3407;49.882;10.920;2024-01-27T00:55:06;2.37;;;2.20;;
6739;SDS011;3407;49.882;10.920;2024-01-27T01:00:01;1.70;;;1.70;;
6739;SDS011;3407;49.882;10.920;2024-01-27T01:04:58;1.60;;;1.60;;
6739;SDS011;3407;49.882;10.920;2024-01-27T01:09:53;2.13;;;2.03;;
6739;SDS011;3407;49.882;10.920;2024-01-27T01:14:48;1.80;;;1.80;;
6739;SDS011;3407;49.882;10.920;2024-01-27T01:19:44;2.43;;;1.90;;
6739;SDS011;3407;49.882;10.920;2024-01-27T01:24:40;1.70;;;1.70;;
6739;SDS011;3407;49.882;10.920;2024-01-27T01:29:35;1.87;;;1.87;;
6739;SDS011;3407;49.882;10.920;2024-01-27T01:34:31;2.10;;;2.00;;
6739;SDS011;3407;49.882;10.920;2024-01-27T01:39:26;1.63;;;1.63;;
6739;SDS011;3407;49.882;10.920;2024-01-27T01:44:22;1.90;;;1.90;;
6739;SDS011;3407;49.882;10.920;2024-01-27T01:49:24;1.60;;;1.60;;
6739;SDS011;3407;49.882;10.920;2024-01-27T01:54:20;1.80;;;1.80;;
6739;SDS011;3407;49.882;10.920;2024-01-27T01:59:17;2.10;;;2.10;;
6739;SDS011;3407;49.882;10.920;2024-01-27T02:04:13;1.70;;;1.70;;
6739;SDS011;3407;49.882;10.920;2024-01-27T02:09:08;1.50;;;1.50;;
6739;SDS011;3407;49.882;10.920;2024-01-27T02:14:04;1.70;;;1.70;;
6739;SDS011;3407;49.882;10.920;2024-01-27T02:19:01;1.63;;;1.63;;
6739;SDS011;3407;49.882;10.920;2024-01-27T02:23:56;1.70;;;1.70;;
6739;SDS011;3407;49.882;10.920;2024-01-27T02:28:53;1.80;;;1.80;;
6739;SDS011;3407;49.882;10.920;2024-01-27T02:33:48;1.80;;;1.80;;
6739;SDS011;3407;49.882;10.920;2024-01-27T02:38:44;1.80;;;1.80;;
6739;SDS011;3407;49.882;10.920;2024-01-27T02:43:39;1.80;;;1.80;;
6739;SDS011;3407;49.882;10.920;2024-01-27T02:48:35;1.90;;;1.90;;
6739;SDS011;3407;49.882;10.920;2024-01-27T02:53:30;5.70;;;2.17;;
6739;SDS011;3407;49.882;10.920;2024-01-27T02:58:26;1.90;;;1.90;;
6739;SDS011;3407;49.882;10.920;2024-01-27T03:03:21;2.07;;;2.07;;
6739;SDS011;3407;49.882;10.920;2024-01-27T03:08:17;1.70;;;1.70;;
6739;SDS011;3407;49.882;10.920;2024-01-27T03:13:12;1.80;;;1.80;;
6739;SDS011;3407;49.882;10.920;2024-01-27T03:18:08;2.37;;;2.20;;
6739;SDS011;3407;49.882;10.920;2024-01-27T03:23:04;1.90;;;1.90;;
6739;SDS011;3407;49.882;10.920;2024-01-27T03:27:59;2.00;;;2.00;;
6739;SDS011;3407;49.882;10.920;2024-01-27T03:32:55;1.90;;;1.90;;
6739;SDS011;3407;49.882;10.920;2024-01-27T03:37:51;4.20;;;2.73;;
6739;SDS011;3407;49.882;10.920;2024-01-27T03:42:46;2.20;;;2.20;;
6739;SDS011;3407;49.882;10.920;2024-01-27T03:47:42;2.20;;;2.10;;
6739;SDS011;3407;49.882;10.920;2024-01-27T03:52:37;2.17;;;2.13;;
6739;SDS011;3407;49.882;10.920;2024-01-27T03:57:33;2.40;;;2.30;;
6739;SDS011;3407;49.882;10.920;2024-01-27T04:02:28;2.10;;;2.10;;
6739;SDS011;3407;49.882;10.920;2024-01-27T04:07:24;2.00;;;2.00;;
6739;SDS011;3407;49.882;10.920;2024-01-27T04:12:19;2.00;;;2.00;;
6739;SDS011;3407;49.882;10.920;2024-01-27T04:17:15;1.97;;;1.97;;
6739;SDS011;3407;49.882;10.920;2024-01-27T04:22:10;2.00;;;2.00;;
6739;SDS011;3407;49.882;10.920;2024-01-27T04:27:06;2.23;;;2.17;;
6739;SDS011;3407;49.882;10.920;2024-01-27T04:32:02;2.10;;;2.10;;
6739;SDS011;3407;49.882;10.920;2024-01-27T04:36:57;2.20;;;2.10;;
6739;SDS011;3407;49.882;10.920;2024-01-27T04:41:53;2.10;;;2.10;;
6739;SDS011;3407;49.882;10.920;2024-01-27T04:46:48;2.33;;;2.23;;
6739;SDS011;3407;49.882;10.920;2024-01-27T04:51:44;2.17;;;2.13;;
6739;SDS011;3407;49.882;10.920;2024-01-27T04:56:40;2.20;;;2.20;;
6739;SDS011;3407;49.882;10.920;2024-01-27T05:01:35;2.10;;;2.10;;
6739;SDS011;3407;49.882;10.920;2024-01-27T05:06:31;2.43;;;2.30;;
6739;SDS011;3407;49.882;10.920;2024-01-27T05:11:29;2.30;;;2.30;;
6739;SDS011;3407;49.882;10.920;2024-01-27T05:16:26;2.23;;;2.20;;
6739;SDS011;3407;49.882;10.920;2024-01-27T05:21:22;2.40;;;2.30;;
6739;SDS011;3407;49.882;10.920;2024-01-27T05:26:18;2.20;;;2.20;;
6739;SDS011;3407;49.882;10.920;2024-01-27T05:31:13;2.13;;;2.13;;
6739;SDS011;3407;49.882;10.920;2024-01-27T05:36:09;2.20;;;2.20;;
6739;SDS011;3407;49.882;10.920;2024-01-27T05:41:04;2.10;;;2.10;;
6739;SDS011;3407;49.882;10.920;2024-01-27T05:46:00;2.30;;;2.30;;
6739;SDS011;3407;49.882;10.920;2024-01-27T05:50:59;2.60;;;2.50;;
6739;SDS011;3407;49.882;10.920;2024-01-27T05:55:55;3.53;;;3.43;;
6739;SDS011;3407;49.882;10.920;2024-01-27T06:00:51;2.47;;;2.40;;
6739;SDS011;3407;49.882;10.920;2024-01-27T06:05:47;2.63;;;2.53;;
6739;SDS011;3407;49.882;10.920;2024-01-27T06:10:42;4.20;;;2.43;;
6739;SDS011;3407;49.882;10.920;2024-01-27T06:15:38;2.73;;;2.63;;
6739;SDS011;3407;49.882;10.920;2024-01-27T06:20:34;2.10;;;2.10;;
6739;SDS011;3407;49.882;10.920;2024-01-27T06:25:29;2.10;;;2.10;;
6739;SDS011;3407;49.882;10.920;2024-01-27T06:30:25;2.63;;;2.43;;
6739;SDS011;3407;49.882;10.920;2024-01-27T06:35:21;2.20;;;2.20;;
6739;SDS011;3407;49.882;10.920;2024-01-27T06:40:16;2.90;;;2.80;;
6739;SDS011;3407;49.882;10.920;2024-01-27T06:45:12;2.10;;;2.10;;
6739;SDS011;3407;49.882;10.920;2024-01-27T06:50:08;2.50;;;2.40;;
6739;SDS011;3407;49.882;10.920;2024-01-27T06:55:04;3.13;;;3.03;;
6739;SDS011;3407;49.882;10.920;2024-01-27T07:00:01;3.50;;;3.40;;
6739;SDS011;3407;49.882;10.920;2024-01-27T07:04:57;10.77;;;3.17;;
6739;SDS011;3407;49.882;10.920;2024-01-27T07:09:56;2.53;;;2.50;;
6739;SDS011;3407;49.882;10.920;2024-01-27T07:14:53;2.10;;;2.10;;
6739;SDS011;3407;49.882;10.920;2024-01-27T07:19:51;2.20;;;2.20;;
6739;SDS011;3407;49.882;10.920;2024-01-27T07:24:46;2.10;;;2.10;;
6739;SDS011;3407;49.882;10.920;2024-01-27T07:29:46;3.10;;;3.00;;
6739;SDS011;3407;49.882;10.920;2024-01-27T07:34:42;2.60;;;2.50;;
6739;SDS011;3407;49.882;10.920;2024-01-27T07:39:38;2.10;;;2.10;;
6739;SDS011;3407;49.882;10.920;2024-01-27T07:44:34;2.90;;;2.80;;
6739;SDS011;3407;49.882;10.920;2024-01-27T07:49:29;2.30;;;2.30;;
6739;SDS011;3407;49.882;10.920;2024-01-27T07:54:25;2.30;;;2.30;;
6739;SDS011;3407;49.882;10.920;2024-01-27T07:59:20;2.60;;;2.50;;
6739;SDS011;3407;49.882;10.920;2024-01-27T08:04:16;2.70;;;2.60;;
6739;SDS011;3407;49.882;10.920;2024-01-27T08:09:11;3.03;;;2.90;;
6739;SDS011;3407;49.882;10.920;2024-01-27T08:14:07;2.20;;;2.20;;
6739;SDS011;3407;49.882;10.920;2024-01-27T08:19:02;2.87;;;2.77;;
6739;SDS011;3407;49.882;10.920;2024-01-27T08:23:58;2.07;;;2.07;;
6739;SDS011;3407;49.882;10.920;2024-01-27T08:28:54;2.00;;;2.00;;
6739;SDS011;3407;49.882;10.920;2024-01-27T08:33:51;2.33;;;2.33;;
6739;SDS011;3407;49.882;10.920;2024-01-27T08:38:47;2.67;;;2.57;;
6739;SDS011;3407;49.882;10.920;2024-01-27T08:43:42;1.90;;;1.90;;
6739;SDS011;3407;49.882;10.920;2024-01-27T08:48:38;2.03;;;2.03;;
6739;SDS011;3407;49.882;10.920;2024-01-27T08:53:35;5.23;;;2.20;;
6739;SDS011;3407;49.882;10.920;2024-01-27T08:58:31;2.40;;;2.13;;
6739;SDS011;3407;49.882;10.920;2024-01-27T09:03:27;2.73;;;2.53;;
6739;SDS011;3407;49.882;10.920;2024-01-27T09:08:22;1.60;;;1.60;;
6739;SDS011;3407;49.882;10.920;2024-01-27T09:13:18;1.80;;;1.80;;
6739;SDS011;3407;49.882;10.920;2024-01-27T09:18:13;1.70;;;1.70;;
6739;SDS011;3407;49.882;10.920;2024-01-27T09:23:10;1.80;;;1.70;;
6739;SDS011;3407;49.882;10.920;2024-01-27T09:28:06;1.60;;;1.50;;
6739;SDS011;3407;49.882;10.920;2024-01-27T09:33:02;1.60;;;1.60;;
6739;SDS011;3407;49.882;10.920;2024-01-27T09:37:57;2.13;;;1.83;;
6739;SDS011;3407;49.882;10.920;2024-01-27T09:42:53;1.67;;;1.63;;
6739;SDS011;3407;49.882;10.920;2024-01-27T09:47:55;1.90;;;1.80;;
6739;SDS011;3407;49.882;10.920;2024-01-27T09:52:53;1.73;;;1.47;;
6739;SDS011;3407;49.882;10.920;2024-01-27T09:57:48;1.13;;;1.13;;
6739;SDS011;3407;49.882;10.920;2024-01-27T10:02:45;1.67;;;1.17;;
6739;SDS011;3407;49.882;10.920;2024-01-27T10:07:44;1.17;;;1.03;;
6739;SDS011;3407;49.882;10.920;2024-01-27T10:12:40;1.27;;;1.17;;
6739;SDS011;3407;49.882;10.920;2024-01-27T10:17:37;3.97;;;1.70;;
6739;SDS011;3407;49.882;10.920;2024-01-27T10:22:39;4.33;;;1.10;;
6739;SDS011;3407;49.882;10.920;2024-01-27T10:27:35;3.93;;;1.83;;
6739;SDS011;3407;49.882;10.920;2024-01-27T10:32:31;1.30;;;1.20;;
6739;SDS011;3407;49.882;10.920;2024-01-27T10:37:26;3.23;;;1.87;;
6739;SDS011;3407;49.882;10.920;2024-01-27T10:42:22;3.23;;;2.17;;
6739;SDS011;3407;49.882;10.920;2024-01-27T10:47:18;1.07;;;0.97;;
6739;SDS011;3407;49.882;10.920;2024-01-27T10:52:15;2.40;;;1.00;;
6739;SDS011;3407;49.882;10.920;2024-01-27T10:57:13;3.27;;;1.10;;
6739;SDS011;3407;49.882;10.920;2024-01-27T11:02:11;7.80;;;1.20;;
6739;SDS011;3407;49.882;10.920;2024-01-27T11:07:09;1.13;;;1.10;;
6739;SDS011;3407;49.882;10.920;2024-01-27T11:12:05;1.77;;;1.03;;
6739;SDS011;3407;49.882;10.920;2024-01-27T11:17:02;1.93;;;1.77;;
6739;SDS011;3407;49.882;10.920;2024-01-27T11:22:03;1.93;;;1.47;;
6739;SDS011;3407;49.882;10.920;2024-01-27T11:26:59;3.00;;;1.20;;
6739;SDS011;3407;49.882;10.920;2024-01-27T11:31:56;2.67;;;1.40;;
6739;SDS011;3407;49.882;10.920;2024-01-27T11:36:52;1.50;;;1.40;;
6739;SDS011;3407;49.882;10.920;2024-01-27T11:41:47;0.80;;;0.80;;
6739;SDS011;3407;49.882;10.920;2024-01-27T11:46:44;2.07;;;1.40;;
6739;SDS011;3407;49.882;10.920;2024-01-27T11:51:40;6.33;;;1.83;;
6739;SDS011;3407;49.882;10.920;2024-01-27T11:56:36;3.80;;;1.33;;
6739;SDS011;3407;49.882;10.920;2024-01-27T12:01:31;2.80;;;0.97;;
6739;SDS011;3407;49.882;10.920;2024-01-27T12:06:27;1.17;;;0.83;;
6739;SDS011;3407;49.882;10.920;2024-01-27T12:11:26;1.37;;;1.00;;
6739;SDS011;3407;49.882;10.920;2024-01-27T12:16:22;0.90;;;0.90;;
6739;SDS011;3407;49.882;10.920;2024-01-27T12:21:20;1.20;;;1.10;;
6739;SDS011;3407;49.882;10.920;2024-01-27T12:26:16;1.20;;;1.20;;
6739;SDS011;3407;49.882;10.920;2024-01-27T12:31:11;1.80;;;0.93;;
6739;SDS011;3407;49.882;10.920;2024-01-27T12:36:07;1.77;;;1.40;;
6739;SDS011;3407;49.882;10.920;2024-01-27T12:41:03;2.20;;;0.93;;
6739;SDS011;3407;49.882;10.920;2024-01-27T12:45:58;2.13;;;1.40;;
6739;SDS011;3407;49.882;10.920;2024-01-27T12:50:54;3.00;;;1.73;;
6739;SDS011;3407;49.882;10.920;2024-01-27T12:55:49;1.80;;;0.97;;
6739;SDS011;3407;49.882;10.920;2024-01-27T13:00:45;3.60;;;1.30;;
6739;SDS011;3407;49.882;10.920;2024-01-27T13:05:40;3.40;;;0.97;;
6739;SDS011;3407;49.882;10.920;2024-01-27T13:10:36;2.10;;;1.33;;
6739;SDS011;3407;49.882;10.920;2024-01-27T13:15:31;3.73;;;1.67;;
6739;SDS011;3407;49.882;10.920;2024-01-27T13:20:27;3.03;;;1.53;;
6739;SDS011;3407;49.882;10.920;2024-01-27T13:25:22;1.90;;;1.43;;
6739;SDS011;3407;49.882;10.920;2024-01-27T13:30:18;5.87;;;1.40;;
6739;SDS011;3407;49.882;10.920;2024-01-27T13:35:14;1.20;;;1.10;;
6739;SDS011;3407;49.882;10.920;2024-01-27T13:40:10;2.70;;;1.20;;
6739;SDS011;3407;49.882;10.920;2024-01-27T13:45:05;1.07;;;0.97;;
6739;SDS011;3407;49.882;10.920;2024-01-27T13:50:02;4.13;;;1.40;;
6739;SDS011;3407;49.882;10.920;2024-01-27T13:54:57;5.03;;;1.90;;
6739;SDS011;3407;49.882;10.920;2024-01-27T13:59:53;2.53;;;0.90;;
6739;SDS011;3407;49.882;10.920;2024-01-27T14:04:48;1.23;;;1.10;;
6739;SDS011;3407;49.882;10.920;2024-01-27T14:09:44;1.50;;;1.33;;
6739;SDS011;3407;49.882;10.920;2024-01-27T14:14:43;1.37;;;1.10;;
6739;SDS011;3407;49.882;10.920;2024-01-27T14:19:39;3.23;;;0.93;;
6739;SDS011;3407;49.882;10.920;2024-01-27T14:24:35;1.40;;;1.30;;
6739;SDS011;3407;49.882;10.920;2024-01-27T14:29:30;1.83;;;1.07;;
6739;SDS011;3407;49.882;10.920;2024-01-27T14:34:27;1.90;;;1.80;;
6739;SDS011;3407;49.882;10.920;2024-01-27T14:39:22;0.90;;;0.90;;
6739;SDS011;3407;49.882;10.920;2024-01-27T14:44:18;2.37;;;1.40;;
6739;SDS011;3407;49.882;10.920;2024-01-27T14:49:13;0.80;;;0.77;;
6739;SDS011;3407;49.882;10.920;2024-01-27T14:54:10;1.77;;;1.37;;
6739;SDS011;3407;49.882;10.920;2024-01-27T14:59:05;1.20;;;1.20;;
6739;SDS011;3407;49.882;10.920;2024-01-27T15:04:02;2.80;;;2.60;;
6739;SDS011;3407;49.882;10.920;2024-01-27T15:08:58;3.47;;;1.47;;
6739;SDS011;3407;49.882;10.920;2024-01-27T15:13:54;1.60;;;1.03;;
6739;SDS011;3407;49.882;10.920;2024-01-27T15:18:49;1.70;;;1.60;;
6739;SDS011;3407;49.882;10.920;2024-01-27T15:23:45;1.30;;;1.20;;
6739;SDS011;3407;49.882;10.920;2024-01-27T15:28:40;1.00;;;1.00;;
6739;SDS011;3407;49.882;10.920;2024-01-27T15:33:36;5.63;;;1.30;;
6739;SDS011;3407;49.882;10.920;2024-01-27T15:38:32;2.17;;;1.97;;
6739;SDS011;3407;49.882;10.920;2024-01-27T15:43:27;5.70;;;1.70;;
6739;SDS011;3407;49.882;10.920;2024-01-27T15:48:23;1.53;;;1.53;;
6739;SDS011;3407;49.882;10.920;2024-01-27T15:53:21;1.70;;;1.60;;
6739;SDS011;3407;49.882;10.920;2024-01-27T15:58:16;1.97;;;1.80;;
6739;SDS011;3407;49.882;10.920;2024-01-27T16:03:12;5.80;;;1.60;;
6739;SDS011;3407;49.882;10.920;2024-01-27T16:08:08;3.03;;;1.80;;
6739;SDS011;3407;49.882;10.920;2024-01-27T16:13:05;1.80;;;1.80;;
6739;SDS011;3407;49.882;10.920;2024-01-27T16:18:01;6.97;;;2.73;;
6739;SDS011;3407;49.882;10.920;2024-01-27T16:22:56;1.90;;;1.70;;
6739;SDS011;3407;49.882;10.920;2024-01-27T16:27:52;2.50;;;2.30;;
6739;SDS011;3407;49.882;10.920;2024-01-27T16:32:47;2.40;;;2.27;;
6739;SDS011;3407;49.882;10.920;2024-01-27T16:37:43;3.53;;;2.40;;
6739;SDS011;3407;49.882;10.920;2024-01-27T16:42:38;2.07;;;1.83;;
6739;SDS011;3407;49.882;10.920;2024-01-27T16:47:34;2.03;;;1.93;;
6739;SDS011;3407;49.882;10.920;2024-01-27T16:52:30;2.60;;;2.40;;
6739;SDS011;3407;49.882;10.920;2024-01-27T16:57:26;2.33;;;2.23;;
6739;SDS011;3407;49.882;10.920;2024-01-27T17:02:22;2.80;;;2.70;;
6739;SDS011;3407;49.882;10.920;2024-01-27T17:07:19;1.63;;;1.63;;
6739;SDS011;3407;49.882;10.920;2024-01-27T17:12:14;1.90;;;1.90;;
6739;SDS011;3407;49.882;10.920;2024-01-27T17:17:10;2.43;;;2.33;;
6739;SDS011;3407;49.882;10.920;2024-01-27T17:22:06;1.90;;;1.90;;
6739;SDS011;3407;49.882;10.920;2024-01-27T17:27:01;2.87;;;2.67;;
6739;SDS011;3407;49.882;10.920;2024-01-27T17:31:57;1.90;;;1.90;;
6739;SDS011;3407;49.882;10.920;2024-01-27T17:36:52;1.80;;;1.80;;
6739;SDS011;3407;49.882;10.920;2024-01-27T17:41:48;1.83;;;1.83;;
6739;SDS011;3407;49.882;10.920;2024-01-27T17:46:44;2.10;;;2.00;;
6739;SDS011;3407;49.882;10.920;2024-01-27T17:51:39;2.87;;;2.77;;
6739;SDS011;3407;49.882;10.920;2024-01-27T17:56:35;1.90;;;1.90;;
6739;SDS011;3407;49.882;10.920;2024-01-27T18:01:30;2.00;;;2.00;;
6739;SDS011;3407;49.882;10.920;2024-01-27T18:06:26;2.00;;;2.00;;
6739;SDS011;3407;49.882;10.920;2024-01-27T18:11:23;1.90;;;1.90;;
6739;SDS011;3407;49.882;10.920;2024-01-27T18:16:19;2.00;;;2.00;;
6739;SDS011;3407;49.882;10.920;2024-01-27T18:21:14;2.00;;;2.00;;
6739;SDS011;3407;49.882;10.920;2024-01-27T18:26:10;2.00;;;2.00;;
6739;SDS011;3407;49.882;10.920;2024-01-27T18:31:06;2.87;;;2.77;;
6739;SDS011;3407;49.882;10.920;2024-01-27T18:36:01;5.33;;;3.47;;
6739;SDS011;3407;49.882;10.920;2024-01-27T18:40:57;2.80;;;2.70;;
6739;SDS011;3407;49.882;10.920;2024-01-27T18:45:53;4.00;;;3.17;;
6739;SDS011;3407;49.882;10.920;2024-01-27T18:50:51;2.43;;;2.40;;
6739;SDS011;3407;49.882;10.920;2024-01-27T18:55:46;3.50;;;3.30;;
6739;SDS011;3407;49.882;10.920;2024-01-27T19:00:42;4.63;;;2.83;;
6739;SDS011;3407;49.882;10.920;2024-01-27T19:05:38;2.87;;;2.77;;
6739;SDS011;3407;49.882;10.920;2024-01-27T19:10:33;2.30;;;2.27;;
6739;SDS011;3407;49.882;10.920;2024-01-27T19:15:29;2.10;;;2.10;;
6739;SDS011;3407;49.882;10.920;2024-01-27T19:20:26;2.40;;;2.40;;
6739;SDS011;3407;49.882;10.920;2024-01-27T19:25:22;2.20;;;2.20;;
6739;SDS011;3407;49.882;10.920;2024-01-27T19:30:19;2.10;;;2.10;;
6739;SDS011;3407;49.882;10.920;2024-01-27T19:35:15;2.10;;;2.10;;
6739;SDS011;3407;49.882;10.920;2024-01-27T19:40:12;2.63;;;2.53;;
6739;SDS011;3407;49.882;10.920;2024-01-27T19:45:08;2.60;;;2.50;;
6739;SDS011;3407;49.882;10.920;2024-01-27T19:50:04;2.10;;;2.10;;
6739;SDS011;3407;49.882;10.920;2024-01-27T19:55:00;2.13;;;2.13;;
6739;SDS011;3407;49.882;10.920;2024-01-27T19:59:56;3.30;;;3.20;;
6739;SDS011;3407;49.882;10.920;2024-01-27T20:04:52;2.40;;;2.30;;
6739;SDS011;3407;49.882;10.920;2024-01-27T20:09:47;2.40;;;2.40;;
6739;SDS011;3407;49.882;10.920;2024-01-27T20:14:42;2.70;;;2.60;;
6739;SDS011;3407;49.882;10.920;2024-01-27T20:19:40;2.93;;;2.83;;
6739;SDS011;3407;49.882;10.920;2024-01-27T20:24:35;2.20;;;2.20;;
6739;SDS011;3407;49.882;10.920;2024-01-27T20:29:31;2.20;;;2.20;;
6739;SDS011;3407;49.882;10.920;2024-01-27T20:34:26;3.17;;;2.97;;
6739;SDS011;3407;49.882;10.920;2024-01-27T20:39:22;2.43;;;2.40;;
6739;SDS011;3407;49.882;10.920;2024-01-27T20:44:17;2.57;;;2.50;;
6739;SDS011;3407;49.882;10.920;2024-01-27T20:49:13;2.37;;;2.37;;
6739;SDS011;3407;49.882;10.920;2024-01-27T20:54:08;2.27;;;2.27;;
6739;SDS011;3407;49.882;10.920;2024-01-27T20:59:04;2.57;;;2.50;;
6739;SDS011;3407;49.882;10.920;2024-01-27T21:03:59;3.13;;;3.03;;
6739;SDS011;3407;49.882;10.920;2024-01-27T21:08:55;2.80;;;2.70;;
6739;SDS011;3407;49.882;10.920;2024-01-27T21:13:50;2.33;;;2.33;;
6739;SDS011;3407;49.882;10.920;2024-01-27T21:18:46;2.70;;;2.60;;
6739;SDS011;3407;49.882;10.920;2024-01-27T21:23:42;2.40;;;2.40;;
6739;SDS011;3407;49.882;10.920;2024-01-27T21:28:37;2.93;;;2.83;;
6739;SDS011;3407;49.882;10.920;2024-01-27T21:33:33;4.00;;;3.70;;
6739;SDS011;3407;49.882;10.920;2024-01-27T21:38:28;2.67;;;2.63;;
6739;SDS011;3407;49.882;10.920;2024-01-27T21:43:24;3.17;;;3.07;;
6739;SDS011;3407;49.882;10.920;2024-01-27T21:48:19;3.33;;;3.23;;
6739;SDS011;3407;49.882;10.920;2024-01-27T21:53:15;2.63;;;2.57;;
6739;SDS011;3407;49.882;10.920;2024-01-27T21:58:11;2.90;;;2.83;;
6739;SDS011;3407;49.882;10.920;2024-01-27T22:03:06;2.80;;;2.70;;
6739;SDS011;3407;49.882;10.920;2024-01-27T22:08:02;2.50;;;2.50;;
6739;SDS011;3407;49.882;10.920;2024-01-27T22:12:58;3.00;;;2.90;;
6739;SDS011;3407;49.882;10.920;2024-01-27T22:17:54;3.23;;;3.13;;
6739;SDS011;3407;49.882;10.920;2024-01-27T22:22:49;2.70;;;2.60;;
6739;SDS011;3407;49.882;10.920;2024-01-27T22:27:45;3.63;;;3.43;;
6739;SDS011;3407;49.882;10.920;2024-01-27T22:32:40;2.90;;;2.80;;
6739;SDS011;3407;49.882;10.920;2024-01-27T22:37:36;15.40;;;3.17;;
6739;SDS011;3407;49.882;10.920;2024-01-27T22:42:32;2.40;;;2.40;;
6739;SDS011;3407;49.882;10.920;2024-01-27T22:47:30;2.40;;;2.40;;
6739;SDS011;3407;49.882;10.920;2024-01-27T22:52:25;5.70;;;4.13;;
6739;SDS011;3407;49.882;10.920;2024-01-27T22:57:21;2.70;;;2.60;;
6739;SDS011;3407;49.882;10.920;2024-01-27T23:02:17;2.60;;;2.50;;
6739;SDS011;3407;49.882;10.920;2024-01-27T23:07:12;2.50;;;2.50;;
6739;SDS011;3407;49.882;10.920;2024-01-27T23:12:08;2.37;;;2.37;;
6739;SDS011;3407;49.882;10.920;2024-01-27T23:17:05;2.40;;;2.40;;
6739;SDS011;3407;49.882;10.920;2024-01-27T23:22:01;2.90;;;2.80;;
6739;SDS011;3407;49.882;10.920;2024-01-27T23:26:56;2.63;;;2.57;;
6739;SDS011;3407;49.882;10.920;2024-01-27T23:31:52;2.67;;;2.60;;
6739;SDS011;3407;49.882;10.920;2024-01-27T23:36:48;2.43;;;2.43;;
6739;SDS011;3407;49.882;10.920;2024-01-27T23:41:44;3.30;;;3.20;;
6739;SDS011;3407;49.882;10.920;2024-01-27T23:46:40;3.00;;;2.90;;
6739;SDS011;3407;49.882;10.920;2024-01-27T23:51:36;2.90;;;2.80;;
6739;SDS011;3407;49.882;10.920;2024-01-27T23:56:33;2.63;;;2.57;;
